createdAt,value
2019-03-25T00:04:37.240Z,4.10
2019-03-25T00:09:29.026Z,4.10
2019-03-25T00:14:20.917Z,2.80
2019-03-25T00:19:12.816Z,4.10
2019-03-25T00:24:04.800Z,2.30
2019-03-25T00:28:56.951Z,2.70
2019-03-25T00:33:48.927Z,2.80
2019-03-25T00:38:40.734Z,4.80
2019-03-25T00:43:32.634Z,2.10
2019-03-25T00:48:24.482Z,3.00
2019-03-25T00:53:18.401Z,3.80
2019-03-25T00:58:11.959Z,2.50
2019-03-25T01:03:03.486Z,3.80
2019-03-25T01:07:55.499Z,3.00
2019-03-25T01:12:47.522Z,3.80
2019-03-25T01:17:39.434Z,3.70
2019-03-25T01:22:31.571Z,4.00
2019-03-25T01:27:23.293Z,4.50
2019-03-25T01:32:15.436Z,4.90
2019-03-25T01:37:07.429Z,3.50
2019-03-25T01:42:01.300Z,3.80
2019-03-25T01:46:52.781Z,5.80
2019-03-25T01:51:44.844Z,4.20
2019-03-25T01:56:36.786Z,4.60
2019-03-25T02:01:28.705Z,4.40
2019-03-25T02:06:22.783Z,4.90
2019-03-25T02:11:14.194Z,4.70
2019-03-25T02:16:06.361Z,4.50
2019-03-25T02:20:58.797Z,4.80
2019-03-25T02:25:50.842Z,4.00
2019-03-25T02:30:42.640Z,4.60
2019-03-25T02:35:34.663Z,4.60
2019-03-25T02:40:28.328Z,4.70
2019-03-25T02:45:20.233Z,3.60
2019-03-25T02:50:12.245Z,4.50
2019-03-25T02:55:06.340Z,3.90
2019-03-25T02:59:58.349Z,5.50
2019-03-25T03:04:52.393Z,4.90
2019-03-25T03:09:43.886Z,4.30
2019-03-25T03:14:35.632Z,3.90
2019-03-25T03:19:27.569Z,4.30
2019-03-25T03:24:19.398Z,4.00
2019-03-25T03:29:10.907Z,2.90
2019-03-25T03:34:02.961Z,5.10
2019-03-25T03:38:55.043Z,2.90
2019-03-25T03:43:47.212Z,3.60
2019-03-25T03:48:39.733Z,4.30
2019-03-25T03:53:31.342Z,3.10
2019-03-25T03:58:26.191Z,4.10
2019-03-25T04:03:17.676Z,4.30
2019-03-25T04:08:09.469Z,3.90
2019-03-25T04:13:01.295Z,4.70
2019-03-25T04:17:53.235Z,3.60
2019-03-25T04:22:45.352Z,4.50
2019-03-25T04:27:37.273Z,3.50
2019-03-25T04:32:31.292Z,3.70
2019-03-25T04:37:24.738Z,4.40
2019-03-25T04:42:18.523Z,3.90
2019-03-25T04:47:10.663Z,4.70
2019-03-25T04:52:02.270Z,4.00
2019-03-25T04:56:56.254Z,3.70
2019-03-25T05:01:47.479Z,2.80
2019-03-25T05:06:41.403Z,3.20
2019-03-25T05:11:35.559Z,3.90
2019-03-25T05:16:29.171Z,3.90
2019-03-25T05:21:22.583Z,2.60
2019-03-25T05:26:16.050Z,2.80
2019-03-25T05:31:09.472Z,3.10
2019-03-25T05:36:01.779Z,2.70
2019-03-25T05:40:55.808Z,3.50
2019-03-25T05:45:47.257Z,1.70
2019-03-25T05:50:40.898Z,2.80
2019-03-25T05:55:34.309Z,2.40
2019-03-25T06:00:27.679Z,2.20
2019-03-25T06:05:19.052Z,1.50
2019-03-25T06:10:12.768Z,2.40
2019-03-25T06:15:06.031Z,2.20
2019-03-25T06:20:00.367Z,2.80
2019-03-25T06:24:54.145Z,2.90
2019-03-25T06:29:48.343Z,3.30
2019-03-25T06:34:41.590Z,2.20
2019-03-25T06:39:32.966Z,3.60
2019-03-25T06:44:26.980Z,2.50
2019-03-25T06:49:20.235Z,3.30
2019-03-25T06:54:13.710Z,2.90
2019-03-25T06:59:05.290Z,2.50
2019-03-25T07:03:58.623Z,2.60
2019-03-25T07:08:50.515Z,2.80
2019-03-25T07:13:44.493Z,3.10
2019-03-25T07:18:38.015Z,4.30
2019-03-25T07:23:31.429Z,3.30
2019-03-25T07:28:24.767Z,2.90
2019-03-25T07:33:16.793Z,2.80
2019-03-25T07:38:08.830Z,3.20
2019-03-25T07:43:00.899Z,2.30
2019-03-25T07:47:55.795Z,3.60
2019-03-25T07:52:47.681Z,2.50
2019-03-25T07:57:48.391Z,3.70
2019-03-25T08:02:41.505Z,1.80
2019-03-25T08:07:35.138Z,0.70
2019-03-25T08:12:26.534Z,2.60
2019-03-25T08:17:20.333Z,2.80
2019-03-25T08:22:13.417Z,1.20
2019-03-25T08:27:05.486Z,1.40
2019-03-25T08:31:59.448Z,2.30
2019-03-25T08:36:52.602Z,1.70
2019-03-25T08:41:46.037Z,0.90
2019-03-25T08:46:37.531Z,2.80
2019-03-25T08:51:29.831Z,3.50
2019-03-25T08:56:22.042Z,1.40
2019-03-25T09:01:14.379Z,1.90
2019-03-25T09:06:06.256Z,1.20
2019-03-25T09:10:58.070Z,1.70
2019-03-25T09:15:49.885Z,1.20
2019-03-25T09:20:41.767Z,1.70
2019-03-25T09:25:33.820Z,1.30
2019-03-25T09:30:25.814Z,1.10
2019-03-25T09:35:18.890Z,1.00
2019-03-25T09:40:10.577Z,1.70
2019-03-25T09:45:02.678Z,1.20
2019-03-25T09:49:55.536Z,1.30
2019-03-25T09:54:48.177Z,0.90
2019-03-25T09:59:41.124Z,2.00
2019-03-25T10:04:34.011Z,1.50
2019-03-25T10:09:25.689Z,0.40
2019-03-25T10:14:16.761Z,0.90
2019-03-25T10:19:10.734Z,0.70
2019-03-25T10:24:02.566Z,1.70
2019-03-25T10:28:55.066Z,0.70
2019-03-25T10:33:47.601Z,1.20
2019-03-25T10:38:40.155Z,1.50
2019-03-25T10:43:32.274Z,1.10
2019-03-25T10:48:24.575Z,1.10
2019-03-25T10:53:17.038Z,2.30
2019-03-25T10:58:10.733Z,1.50
2019-03-25T11:03:02.947Z,2.00
2019-03-25T11:07:54.994Z,0.90
2019-03-25T11:12:47.163Z,0.20
2019-03-25T11:17:38.702Z,1.20
2019-03-25T11:22:31.028Z,0.90
2019-03-25T11:27:24.187Z,0.70
2019-03-25T11:32:15.938Z,1.00
2019-03-25T11:37:10.445Z,1.30
2019-03-25T11:42:02.561Z,1.80
2019-03-25T11:46:54.736Z,2.10
2019-03-25T11:51:47.164Z,1.60
2019-03-25T11:56:39.462Z,2.10
2019-03-25T12:01:31.725Z,0.90
2019-03-25T12:06:24.080Z,1.40
2019-03-25T12:11:16.089Z,1.30
2019-03-25T12:16:07.763Z,1.90
2019-03-25T12:20:59.611Z,1.40
2019-03-25T12:25:51.477Z,1.00
2019-03-25T12:30:43.660Z,1.50
2019-03-25T12:35:35.856Z,0.30
2019-03-25T12:40:28.688Z,0.20
2019-03-25T12:45:21.245Z,1.00
2019-03-25T12:50:13.666Z,0.80
2019-03-25T12:55:06.179Z,0.50
2019-03-25T12:59:58.801Z,0.80
2019-03-25T13:04:51.229Z,1.10
2019-03-25T13:09:43.304Z,0.70
2019-03-25T13:14:35.715Z,0.70
2019-03-25T13:19:27.865Z,1.90
2019-03-25T13:24:21.774Z,2.20
2019-03-25T13:29:13.017Z,1.60
2019-03-25T13:34:04.474Z,1.00
2019-03-25T13:38:58.428Z,1.50
2019-03-25T13:43:49.450Z,1.70
2019-03-25T13:48:41.001Z,0.90
2019-03-25T13:53:33.487Z,1.10
2019-03-25T13:58:25.575Z,2.20
2019-03-25T14:03:17.573Z,1.90
2019-03-25T14:08:09.400Z,2.90
2019-03-25T14:13:01.403Z,1.60
2019-03-25T14:17:53.229Z,1.00
2019-03-25T14:22:45.056Z,2.10
2019-03-25T14:27:36.990Z,0.60
2019-03-25T14:32:28.996Z,0.80
2019-03-25T14:37:21.819Z,1.40
2019-03-25T14:42:14.158Z,1.20
2019-03-25T14:47:06.622Z,1.30
2019-03-25T14:52:00.415Z,1.40
2019-03-25T14:56:51.734Z,0.90
2019-03-25T15:01:43.451Z,1.10
2019-03-25T15:06:35.264Z,1.10
2019-03-25T15:11:27.239Z,2.30
2019-03-25T15:16:20.066Z,2.70
2019-03-25T15:21:12.195Z,1.70
2019-03-25T15:26:08.405Z,1.70
2019-03-25T15:30:59.569Z,2.30
2019-03-25T15:35:51.629Z,1.10
2019-03-25T15:40:43.892Z,1.50
2019-03-25T15:45:36.683Z,1.50
2019-03-25T15:50:28.805Z,1.10
2019-03-25T15:55:20.642Z,1.30
2019-03-25T16:00:12.733Z,0.80
2019-03-25T16:05:04.515Z,1.30
2019-03-25T16:09:56.503Z,5.50
2019-03-25T16:14:48.551Z,1.90
2019-03-25T16:19:40.479Z,1.90
2019-03-25T16:24:33.298Z,1.50
2019-03-25T16:29:25.260Z,3.00
2019-03-25T16:34:17.140Z,1.10
2019-03-25T16:39:09.180Z,1.80
2019-03-25T16:44:01.587Z,1.50
2019-03-25T16:48:55.665Z,1.80
2019-03-25T16:53:47.318Z,0.90
2019-03-25T16:58:39.300Z,1.00
2019-03-25T17:03:31.503Z,0.80
2019-03-25T17:08:23.462Z,1.60
2019-03-25T17:13:17.341Z,1.00
2019-03-25T17:18:09.009Z,1.20
2019-03-25T17:23:00.864Z,1.30
2019-03-25T17:27:52.990Z,0.60
2019-03-25T17:32:44.976Z,1.10
2019-03-25T17:37:36.892Z,2.10
2019-03-25T17:42:28.702Z,0.50
2019-03-25T17:47:20.706Z,1.20
2019-03-25T17:52:12.490Z,1.50
2019-03-25T17:57:04.371Z,2.00
2019-03-25T18:01:56.238Z,1.60
2019-03-25T18:06:48.319Z,0.90
2019-03-25T18:11:42.397Z,1.50
2019-03-25T18:16:34.114Z,1.70
2019-03-25T18:21:26.397Z,1.50
2019-03-25T18:26:18.663Z,1.20
2019-03-25T18:31:10.935Z,1.50
2019-03-25T18:36:03.145Z,1.40
2019-03-25T18:40:55.308Z,1.20
2019-03-25T18:45:47.476Z,1.40
2019-03-25T18:50:39.682Z,1.20
2019-03-25T18:55:31.986Z,2.20
2019-03-25T19:00:25.889Z,1.20
2019-03-25T19:05:17.379Z,1.30
2019-03-25T19:10:09.258Z,1.50
2019-03-25T19:15:03.464Z,1.50
2019-03-25T19:19:54.668Z,1.60
2019-03-25T19:24:46.622Z,2.50
2019-03-25T19:29:38.661Z,1.50
2019-03-25T19:34:31.141Z,1.60
2019-03-25T19:39:23.053Z,1.30
2019-03-25T19:44:15.145Z,1.20
2019-03-25T19:49:06.934Z,1.50
2019-03-25T19:53:58.929Z,1.80
2019-03-25T19:58:52.767Z,1.70
2019-03-25T20:03:44.453Z,2.00
2019-03-25T20:08:36.561Z,3.30
2019-03-25T20:13:28.543Z,1.90
2019-03-25T20:18:23.160Z,2.00
2019-03-25T20:23:14.409Z,1.90
2019-03-25T20:28:06.435Z,1.70
2019-03-25T20:32:58.685Z,1.70
2019-03-25T20:37:51.197Z,2.10
2019-03-25T20:42:45.309Z,2.00
2019-03-25T20:47:37.766Z,1.70
2019-03-25T20:52:31.524Z,2.90
2019-03-25T20:57:24.973Z,2.50
2019-03-25T21:02:19.315Z,2.20
2019-03-25T21:07:12.198Z,2.00
2019-03-25T21:12:05.844Z,2.30
2019-03-25T21:16:57.411Z,3.30
2019-03-25T21:21:49.454Z,2.40
2019-03-25T21:26:43.311Z,2.20
2019-03-25T21:31:34.999Z,2.30
2019-03-25T21:36:29.309Z,2.00
2019-03-25T21:41:21.095Z,3.40
2019-03-25T21:46:13.570Z,2.60
2019-03-25T21:51:06.834Z,2.20
2019-03-25T21:55:58.418Z,3.90
2019-03-25T22:00:49.726Z,3.10
2019-03-25T22:05:41.390Z,3.50
2019-03-25T22:10:33.231Z,3.60
2019-03-25T22:15:25.276Z,3.00
2019-03-25T22:20:17.427Z,4.20
2019-03-25T22:25:09.502Z,2.10
2019-03-25T22:30:01.378Z,2.50
2019-03-25T22:34:53.280Z,2.70
2019-03-25T22:39:45.373Z,3.00
2019-03-25T22:44:37.404Z,3.70
2019-03-25T22:49:29.558Z,1.80
2019-03-25T22:54:23.455Z,3.50
2019-03-25T22:59:15.573Z,2.10
2019-03-25T23:04:07.365Z,2.40
2019-03-25T23:09:01.170Z,3.10
2019-03-25T23:13:52.530Z,2.70
2019-03-25T23:18:44.492Z,3.60
2019-03-25T23:23:36.393Z,2.10
2019-03-25T23:28:28.238Z,2.00
2019-03-25T23:33:22.029Z,3.20
2019-03-25T23:38:13.602Z,2.00
2019-03-25T23:43:05.556Z,1.40
2019-03-25T23:47:57.829Z,4.30
2019-03-25T23:52:49.703Z,2.40
2019-03-25T23:57:41.412Z,2.00
